createdAt,value
2023-05-14T00:01:03.357Z,101001.77
2023-05-14T00:04:07.495Z,101004.86
2023-05-14T00:07:11.988Z,101001.70
2023-05-14T00:10:17.758Z,101001.29
2023-05-14T00:13:21.861Z,100998.52
2023-05-14T00:16:26.002Z,101003.20
2023-05-14T00:19:30.102Z,100999.10
2023-05-14T00:22:35.062Z,100997.29
2023-05-14T00:25:39.306Z,100990.84
2023-05-14T00:28:43.290Z,100988.15
2023-05-14T00:31:47.309Z,100987.70
2023-05-14T00:34:51.415Z,100987.58
2023-05-14T00:37:55.627Z,100986.81
2023-05-14T00:40:59.661Z,100985.40
2023-05-14T00:44:04.168Z,100983.66
2023-05-14T00:47:08.764Z,100980.66
2023-05-14T00:50:14.886Z,100984.85
2023-05-14T00:53:19.821Z,100983.78
2023-05-14T00:56:24.940Z,100984.48
2023-05-14T00:59:29.065Z,100983.75
2023-05-14T01:02:33.125Z,100983.60
2023-05-14T01:06:02.910Z,100981.88
2023-05-14T01:09:20.623Z,100982.67
2023-05-14T01:12:36.634Z,100984.52
2023-05-14T01:15:45.421Z,100982.83
2023-05-14T01:18:51.467Z,100982.22
2023-05-14T01:21:55.509Z,100987.98
2023-05-14T01:24:59.558Z,100991.23
2023-05-14T01:28:13.513Z,100989.94
2023-05-14T01:31:25.331Z,100982.77
2023-05-14T01:34:31.476Z,100981.19
2023-05-14T01:37:37.929Z,100976.19
2023-05-14T01:40:45.645Z,100972.98
2023-05-14T01:43:50.065Z,100970.45
2023-05-14T01:46:54.080Z,100968.20
2023-05-14T01:49:58.073Z,100968.92
2023-05-14T01:53:02.133Z,100969.09
2023-05-14T01:56:06.337Z,100973.30
2023-05-14T01:59:10.558Z,100966.75
2023-05-14T02:02:14.554Z,100968.39
2023-05-14T02:05:19.304Z,100968.37
2023-05-14T02:08:24.076Z,100967.48
2023-05-14T02:11:28.093Z,100966.48
2023-05-14T02:14:32.375Z,100964.39
2023-05-14T02:17:36.846Z,100962.40
2023-05-14T02:20:41.327Z,100954.88
2023-05-14T02:23:45.296Z,100952.84
2023-05-14T02:26:49.352Z,100954.35
2023-05-14T02:29:53.479Z,100954.35
2023-05-14T02:32:58.197Z,100963.85
2023-05-14T02:36:02.234Z,100962.89
2023-05-14T02:39:06.776Z,100965.66
2023-05-14T02:42:10.886Z,100962.52
2023-05-14T02:45:14.887Z,100962.02
2023-05-14T02:48:19.013Z,100960.78
2023-05-14T02:51:23.741Z,100956.80
2023-05-14T02:54:27.773Z,100958.83
2023-05-14T02:57:31.901Z,100957.17
2023-05-14T03:00:36.121Z,100956.14
2023-05-14T03:03:40.831Z,100956.16
2023-05-14T03:06:45.156Z,100955.46
2023-05-14T03:09:49.183Z,100954.60
2023-05-14T03:12:53.286Z,100955.16
2023-05-14T03:15:57.403Z,100954.48
2023-05-14T03:19:01.489Z,100951.05
2023-05-14T03:22:05.643Z,100950.13
2023-05-14T03:25:10.071Z,100948.05
2023-05-14T03:28:14.085Z,100948.30
2023-05-14T03:31:18.250Z,100940.59
2023-05-14T03:34:22.422Z,100941.73
2023-05-14T03:37:26.455Z,100940.80
2023-05-14T03:40:30.761Z,100937.45
2023-05-14T03:43:35.290Z,100936.09
2023-05-14T03:46:39.408Z,100933.11
2023-05-14T03:49:43.547Z,100932.64
2023-05-14T03:52:48.346Z,100932.45
2023-05-14T03:55:52.501Z,100932.79
2023-05-14T03:58:56.601Z,100934.80
2023-05-14T04:02:00.634Z,100931.48
2023-05-14T04:05:05.153Z,100930.67
2023-05-14T04:08:09.252Z,100933.33
2023-05-14T04:11:13.271Z,100928.23
2023-05-14T04:14:17.296Z,100932.73
2023-05-14T04:17:22.651Z,100934.57
2023-05-14T04:20:27.331Z,100940.93
2023-05-14T04:23:32.097Z,100939.76
2023-05-14T04:26:36.223Z,100942.25
2023-05-14T04:29:40.434Z,100941.45
2023-05-14T04:32:44.663Z,100946.14
2023-05-14T04:35:48.746Z,100941.18
2023-05-14T04:38:52.798Z,100939.26
2023-05-14T04:41:56.806Z,100943.08
2023-05-14T04:45:01.134Z,100938.27
2023-05-14T04:48:07.839Z,100936.19
2023-05-14T04:51:12.140Z,100937.14
2023-05-14T04:54:16.173Z,100932.29
2023-05-14T04:57:20.261Z,100934.54
2023-05-14T05:00:24.730Z,100939.98
2023-05-14T05:03:29.067Z,100936.38
2023-05-14T05:06:33.245Z,100937.58
2023-05-14T05:09:37.456Z,100940.72
2023-05-14T05:12:41.778Z,100938.48
2023-05-14T05:15:46.147Z,100939.35
2023-05-14T05:18:50.358Z,100942.11
2023-05-14T05:21:57.416Z,100938.65
2023-05-14T05:25:01.404Z,100941.19
2023-05-14T05:28:05.373Z,100941.52
2023-05-14T05:31:09.500Z,100939.08
2023-05-14T05:34:13.584Z,100939.03
2023-05-14T05:37:17.812Z,100941.45
2023-05-14T05:40:22.174Z,100942.77
2023-05-14T05:43:26.214Z,100942.45
2023-05-14T05:46:30.420Z,100943.71
2023-05-14T05:49:34.677Z,100937.23
2023-05-14T05:52:39.483Z,100940.21
2023-05-14T05:55:43.537Z,100935.96
2023-05-14T05:58:47.966Z,100933.35
2023-05-14T06:01:51.980Z,100934.30
2023-05-14T06:04:56.204Z,100933.83
2023-05-14T06:08:00.210Z,100933.73
2023-05-14T06:11:04.740Z,100934.33
2023-05-14T06:14:08.621Z,100933.49
2023-05-14T06:17:12.553Z,100933.51
2023-05-14T06:20:16.695Z,100931.75
2023-05-14T06:23:20.900Z,100927.70
2023-05-14T06:26:25.021Z,100928.55
2023-05-14T06:29:29.042Z,100928.08
2023-05-14T06:32:33.043Z,100929.59
2023-05-14T06:35:37.275Z,100928.36
2023-05-14T06:38:41.395Z,100927.80
2023-05-14T06:41:45.601Z,100928.49
2023-05-14T06:44:51.776Z,100928.33
2023-05-14T06:47:55.957Z,100925.52
2023-05-14T06:51:00.032Z,100923.50
2023-05-14T06:54:04.024Z,100921.00
2023-05-14T06:57:08.045Z,100916.29
2023-05-14T07:00:14.331Z,100916.94
2023-05-14T07:03:18.326Z,100915.02
2023-05-14T07:06:22.853Z,100909.14
2023-05-14T07:09:26.871Z,100903.69
2023-05-14T07:12:30.821Z,100900.91
2023-05-14T07:15:34.799Z,100900.21
2023-05-14T07:18:39.142Z,100898.58
2023-05-14T07:21:43.032Z,100897.76
2023-05-14T07:24:47.253Z,100890.56
2023-05-14T07:27:51.281Z,100888.55
2023-05-14T07:30:55.714Z,100884.23
2023-05-14T07:33:59.711Z,100882.85
2023-05-14T07:37:03.933Z,100884.94
2023-05-14T07:40:08.796Z,100882.42
2023-05-14T07:43:12.884Z,100881.83
2023-05-14T07:46:16.908Z,100881.40
2023-05-14T07:49:21.222Z,100877.54
2023-05-14T07:52:25.548Z,100875.40
2023-05-14T07:55:29.664Z,100868.88
2023-05-14T07:58:33.687Z,100867.72
2023-05-14T08:01:39.345Z,100866.98
2023-05-14T08:04:44.248Z,100867.50
2023-05-14T08:07:48.293Z,100861.45
2023-05-14T08:10:52.298Z,100856.14
2023-05-14T08:13:56.528Z,100851.55
2023-05-14T08:17:00.802Z,100847.73
2023-05-14T08:20:07.561Z,100845.08
2023-05-14T08:23:11.640Z,100840.47
2023-05-14T08:26:15.757Z,100839.60
2023-05-14T08:29:19.784Z,100835.66
2023-05-14T08:32:24.296Z,100832.16
2023-05-14T08:35:28.532Z,100824.24
2023-05-14T08:38:32.750Z,100829.63
2023-05-14T08:41:37.846Z,100821.33
2023-05-14T08:44:52.544Z,100820.63
2023-05-14T08:47:58.621Z,100820.81
2023-05-14T08:51:03.497Z,100814.35
2023-05-14T08:54:07.778Z,100817.33
2023-05-14T08:57:13.228Z,100807.37
2023-05-14T09:00:18.780Z,100815.00
2023-05-14T09:03:23.949Z,100818.21
2023-05-14T09:06:28.410Z,100810.70
2023-05-14T09:09:33.473Z,100806.64
2023-05-14T09:12:37.714Z,100808.65
2023-05-14T09:15:41.812Z,100809.48
2023-05-14T09:18:46.083Z,100807.78
2023-05-14T09:21:50.663Z,100803.81
2023-05-14T09:25:05.815Z,100803.27
2023-05-14T09:28:09.794Z,100801.13
2023-05-14T09:31:13.802Z,100804.49
2023-05-14T09:34:25.765Z,100797.30
2023-05-14T09:37:30.110Z,100794.20
2023-05-14T09:40:34.130Z,100788.45
2023-05-14T09:43:38.343Z,100794.13
2023-05-14T09:46:42.362Z,100793.70
2023-05-14T09:49:48.978Z,100788.00
2023-05-14T09:52:55.750Z,100778.69
2023-05-14T09:55:59.848Z,100780.34
2023-05-14T09:59:04.340Z,100774.80
2023-05-14T10:02:12.779Z,100766.40
2023-05-14T10:05:17.744Z,100768.38
2023-05-14T10:08:30.833Z,100761.19
2023-05-14T10:11:38.117Z,100763.77
2023-05-14T10:14:49.635Z,100764.84
2023-05-14T10:17:59.083Z,100761.09
2023-05-14T10:21:07.912Z,100758.21
2023-05-14T10:24:13.150Z,100762.07
2023-05-14T10:27:17.606Z,100757.82
2023-05-14T10:30:25.616Z,100759.56
2023-05-14T10:33:30.215Z,100755.08
2023-05-14T10:36:34.436Z,100748.30
2023-05-14T10:39:44.601Z,100746.81
2023-05-14T10:42:48.724Z,100745.98
2023-05-14T10:45:52.732Z,100740.39
2023-05-14T10:48:56.950Z,100727.77
2023-05-14T10:52:01.847Z,100709.80
2023-05-14T10:55:12.772Z,100706.77
2023-05-14T10:58:18.123Z,100699.05
2023-05-14T11:01:24.262Z,100701.71
2023-05-14T11:04:28.395Z,100697.55
2023-05-14T11:07:40.602Z,100684.41
2023-05-14T11:10:47.011Z,100683.40
2023-05-14T11:13:52.530Z,100687.45
2023-05-14T11:16:57.735Z,100681.51
2023-05-14T11:20:02.301Z,100678.53
2023-05-14T11:23:06.312Z,100673.45
2023-05-14T11:26:11.383Z,100670.99
2023-05-14T11:29:15.584Z,100667.60
2023-05-14T11:32:20.289Z,100661.26
2023-05-14T11:35:24.852Z,100648.30
2023-05-14T11:38:28.749Z,100637.11
2023-05-14T11:41:33.174Z,100633.39
2023-05-14T11:44:37.086Z,100625.05
2023-05-14T11:47:42.138Z,100623.45
2023-05-14T11:50:51.177Z,100617.48
2023-05-14T11:53:55.181Z,100622.33
2023-05-14T11:57:01.950Z,100614.66
2023-05-14T12:00:09.673Z,100605.95
2023-05-14T12:03:13.885Z,100597.09
2023-05-14T12:06:18.302Z,100595.14
2023-05-14T12:09:23.146Z,100594.80
2023-05-14T12:12:27.252Z,100595.67
2023-05-14T12:15:31.269Z,100587.83
2023-05-14T12:18:35.722Z,100583.88
2023-05-14T12:21:40.736Z,100594.61
2023-05-14T12:24:54.115Z,100587.33
2023-05-14T12:27:58.186Z,100583.40
2023-05-14T12:31:02.837Z,100586.23
2023-05-14T12:34:06.755Z,100578.44
2023-05-14T12:37:10.715Z,100574.56
2023-05-14T12:40:14.777Z,100574.39
2023-05-14T12:43:19.364Z,100568.87
2023-05-14T12:46:23.731Z,100563.40
2023-05-14T12:49:28.046Z,100566.34
2023-05-14T12:55:38.939Z,100553.82
2023-05-14T12:58:43.148Z,100550.50
2023-05-14T13:01:47.148Z,100544.27
2023-05-14T13:04:51.075Z,100539.39
2023-05-14T13:07:55.107Z,100535.19
2023-05-14T13:10:59.125Z,100540.39
2023-05-14T13:14:03.838Z,100538.28
2023-05-14T13:17:08.281Z,100532.02
2023-05-14T13:20:12.311Z,100524.96
2023-05-14T13:23:16.317Z,100524.33
2023-05-14T13:26:20.310Z,100522.43
2023-05-14T13:29:24.403Z,100513.48
2023-05-14T13:32:28.371Z,100518.36
2023-05-14T13:35:34.699Z,100509.52
2023-05-14T13:38:39.081Z,100503.63
2023-05-14T13:41:43.384Z,100501.84
2023-05-14T13:44:47.390Z,100495.30
2023-05-14T13:47:51.836Z,100491.36
2023-05-14T13:50:56.023Z,100482.41
2023-05-14T13:53:59.946Z,100477.76
2023-05-14T13:57:04.455Z,100468.33
2023-05-14T14:00:09.607Z,100461.62
2023-05-14T14:03:13.754Z,100468.54
2023-05-14T14:06:17.605Z,100460.73
2023-05-14T14:09:22.077Z,100457.13
2023-05-14T14:12:26.874Z,100446.61
2023-05-14T14:15:30.929Z,100440.65
2023-05-14T14:18:35.157Z,100442.70
2023-05-14T14:21:42.745Z,100435.23
2023-05-14T14:24:46.693Z,100437.02
2023-05-14T14:27:51.173Z,100434.58
2023-05-14T14:30:55.296Z,100424.01
2023-05-14T14:33:59.112Z,100425.39
2023-05-14T14:37:03.122Z,100425.85
2023-05-14T14:40:10.532Z,100424.05
2023-05-14T14:43:14.573Z,100421.48
2023-05-14T14:46:18.846Z,100419.96
2023-05-14T14:49:23.508Z,100421.55
2023-05-14T14:52:28.314Z,100418.98
2023-05-14T14:55:32.351Z,100414.29
2023-05-14T14:58:36.775Z,100413.73
2023-05-14T15:01:40.966Z,100410.73
2023-05-14T15:04:45.118Z,100405.00
2023-05-14T15:07:49.019Z,100401.61
2023-05-14T15:10:53.456Z,100405.21
2023-05-14T15:13:57.529Z,100406.07
2023-05-14T15:17:01.723Z,100402.58
2023-05-14T15:20:07.492Z,100397.74
2023-05-14T15:23:11.768Z,100404.35
2023-05-14T15:26:15.803Z,100400.34
2023-05-14T15:29:20.222Z,100396.48
2023-05-14T15:32:26.592Z,100398.34
2023-05-14T15:35:30.703Z,100404.05
2023-05-14T15:38:34.850Z,100400.40
2023-05-14T15:41:39.045Z,100395.45
2023-05-14T15:44:43.162Z,100397.61
2023-05-14T15:47:47.190Z,100402.16
2023-05-14T15:50:51.703Z,100395.45
2023-05-14T15:53:55.818Z,100388.16
2023-05-14T15:56:59.746Z,100383.54
2023-05-14T16:00:14.609Z,100380.87
2023-05-14T16:03:18.788Z,100387.34
2023-05-14T16:06:22.925Z,100377.50
2023-05-14T16:09:27.146Z,100372.89
2023-05-14T16:12:31.158Z,100370.74
2023-05-14T16:15:35.298Z,100377.52
2023-05-14T16:18:40.961Z,100373.42
2023-05-14T16:21:45.070Z,100362.06
2023-05-14T16:24:48.984Z,100355.84
2023-05-14T16:27:53.217Z,100353.88
2023-05-14T16:30:57.316Z,100348.61
2023-05-14T16:34:01.335Z,100348.81
2023-05-14T16:37:05.359Z,100348.13
2023-05-14T16:40:11.907Z,100342.13
2023-05-14T16:43:15.936Z,100340.41
2023-05-14T16:46:20.391Z,100341.66
2023-05-14T16:49:24.481Z,100335.40
2023-05-14T16:52:28.655Z,100334.20
2023-05-14T16:55:32.576Z,100333.11
2023-05-14T16:58:36.628Z,100333.61
2023-05-14T17:01:41.993Z,100326.95
2023-05-14T17:04:46.243Z,100325.92
2023-05-14T17:07:50.219Z,100327.40
2023-05-14T17:10:54.104Z,100322.02
2023-05-14T17:13:57.012Z,100324.32
2023-05-14T17:16:58.776Z,100329.92
2023-05-14T17:20:05.931Z,100336.02
2023-05-14T17:23:10.092Z,100338.69
2023-05-14T17:26:14.079Z,100335.23
2023-05-14T17:29:18.025Z,100334.09
2023-05-14T17:32:22.103Z,100331.23
2023-05-14T17:35:26.248Z,100329.86
2023-05-14T17:38:30.465Z,100324.30
2023-05-14T17:41:34.584Z,100324.21
2023-05-14T17:44:38.602Z,100323.23
2023-05-14T17:47:42.548Z,100320.66
2023-05-14T17:50:46.627Z,100315.14
2023-05-14T17:53:51.176Z,100315.27
2023-05-14T17:56:55.698Z,100319.59
2023-05-14T17:59:59.714Z,100320.75
2023-05-14T18:03:03.825Z,100317.05
2023-05-14T18:06:08.379Z,100310.60
2023-05-14T18:09:12.385Z,100306.77
2023-05-14T18:12:16.412Z,100307.11
2023-05-14T18:15:20.513Z,100315.04
2023-05-14T18:18:24.503Z,100316.38
2023-05-14T18:21:28.762Z,100313.20
2023-05-14T18:24:32.792Z,100315.02
2023-05-14T18:27:39.544Z,100315.70
2023-05-14T18:30:43.695Z,100321.05
2023-05-14T18:33:47.891Z,100323.74
2023-05-14T18:36:52.417Z,100322.27
2023-05-14T18:39:56.434Z,100318.16
2023-05-14T18:43:00.564Z,100316.86
2023-05-14T18:46:04.560Z,100316.66
2023-05-14T18:49:08.587Z,100311.67
2023-05-14T18:52:13.253Z,100311.61
2023-05-14T18:55:17.346Z,100314.52
2023-05-14T18:58:21.352Z,100322.52
2023-05-14T19:01:25.869Z,100324.15
2023-05-14T19:04:33.326Z,100327.40
2023-05-14T19:07:38.626Z,100325.21
2023-05-14T19:10:42.944Z,100320.27
2023-05-14T19:13:48.086Z,100315.29
2023-05-14T19:16:52.203Z,100308.27
2023-05-14T19:19:56.217Z,100301.95
2023-05-14T19:23:00.235Z,100297.52
2023-05-14T19:26:04.256Z,100293.42
2023-05-14T19:29:08.265Z,100294.21
2023-05-14T19:32:12.298Z,100294.21
2023-05-14T19:35:16.702Z,100294.64
2023-05-14T19:38:21.242Z,100293.34
2023-05-14T19:41:26.082Z,100291.34
2023-05-14T19:44:31.203Z,100295.59
2023-05-14T19:47:35.173Z,100294.89
2023-05-14T19:50:39.202Z,100292.71
2023-05-14T19:53:43.241Z,100295.42
2023-05-14T19:56:47.396Z,100293.71
2023-05-14T19:59:51.387Z,100293.17
2023-05-14T20:03:00.004Z,100289.52
2023-05-14T20:06:04.242Z,100291.39
2023-05-14T20:09:08.487Z,100292.36
2023-05-14T20:12:13.383Z,100287.49
2023-05-14T20:15:17.412Z,100284.55
2023-05-14T20:18:21.425Z,100279.44
2023-05-14T20:21:25.747Z,100276.31
2023-05-14T20:24:29.751Z,100271.91
2023-05-14T20:27:33.882Z,100268.55
2023-05-14T20:30:38.042Z,100267.05
2023-05-14T20:33:42.135Z,100263.85
2023-05-14T20:36:46.251Z,100261.79
2023-05-14T20:39:50.708Z,100257.76
2023-05-14T20:42:54.907Z,100256.59
2023-05-14T20:45:59.228Z,100249.91
2023-05-14T20:49:03.327Z,100247.42
2023-05-14T20:52:07.207Z,100245.66
2023-05-14T20:55:11.565Z,100244.46
2023-05-14T20:58:15.576Z,100242.09
2023-05-14T21:01:19.642Z,100237.35
2023-05-14T21:04:23.906Z,100233.42
2023-05-14T21:07:28.874Z,100225.71
2023-05-14T21:10:33.178Z,100223.85
2023-05-14T21:13:37.189Z,100223.42
2023-05-14T21:16:41.403Z,100217.50
2023-05-14T21:19:45.531Z,100218.66
2023-05-14T21:22:49.547Z,100215.33
2023-05-14T21:25:55.023Z,100212.32
2023-05-14T21:28:59.314Z,100212.58
2023-05-14T21:32:03.449Z,100214.77
2023-05-14T21:35:08.425Z,100211.30
2023-05-14T21:38:12.614Z,100206.23
2023-05-14T21:41:16.917Z,100208.71
2023-05-14T21:44:22.202Z,100200.09
2023-05-14T21:47:27.165Z,100198.55
2023-05-14T21:50:31.277Z,100194.52
2023-05-14T21:53:35.232Z,100194.50
2023-05-14T21:56:39.256Z,100188.00
2023-05-14T21:59:43.268Z,100186.47
2023-05-14T22:02:47.327Z,100180.70
2023-05-14T22:05:51.913Z,100177.89
2023-05-14T22:08:55.924Z,100177.54
2023-05-14T22:11:59.942Z,100174.37
2023-05-14T22:15:05.427Z,100172.02
2023-05-14T22:18:09.415Z,100170.23
2023-05-14T22:21:13.743Z,100166.31
2023-05-14T22:24:17.740Z,100164.30
2023-05-14T22:27:21.756Z,100159.17
2023-05-14T22:30:25.776Z,100153.89
2023-05-14T22:33:30.099Z,100152.42
2023-05-14T22:36:34.126Z,100147.86
2023-05-14T22:39:38.139Z,100144.02
2023-05-14T22:42:42.161Z,100142.95
2023-05-14T22:45:46.161Z,100136.70
2023-05-14T22:48:50.149Z,100132.70
2023-05-14T22:51:54.510Z,100124.05
2023-05-14T22:54:58.519Z,100123.70
2023-05-14T22:58:02.849Z,100121.27
2023-05-14T23:01:06.862Z,100120.42
2023-05-14T23:04:10.882Z,100119.59
2023-05-14T23:07:15.657Z,100115.83
2023-05-14T23:10:19.834Z,100108.12
2023-05-14T23:13:23.945Z,100107.99
2023-05-14T23:16:28.163Z,100100.20
2023-05-14T23:19:32.207Z,100097.17
2023-05-14T23:22:36.306Z,100095.73
2023-05-14T23:25:40.297Z,100088.27
2023-05-14T23:28:44.293Z,100084.61
2023-05-14T23:31:48.236Z,100082.39
2023-05-14T23:34:52.270Z,100077.61
2023-05-14T23:37:56.375Z,100076.10
2023-05-14T23:41:00.396Z,100068.64
2023-05-14T23:44:04.712Z,100066.23
2023-05-14T23:47:08.930Z,100059.69
2023-05-14T23:50:12.897Z,100053.27
2023-05-14T23:53:17.436Z,100051.52
2023-05-14T23:56:22.506Z,100048.10
2023-05-14T23:59:26.739Z,100044.67
